Time;durP1;ratioP1;P1;durP2;ratioP2;P2;SDS_P1;SDS_P2;PMS_P1;PMS_P2;Temp;Humidity;BMP_temperature;BMP_pressure;BME280_temperature;BME280_humidity;BME280_pressure;Samples;Min_cycle;Max_cycle;Signal;HPM_P1;HPM_P2
2023/03/08 00:00:05;;;;;;;70.97;22.55;;;;;;;0.82;100.00;99766.06;5096491;28;20031;-78
2023/03/08 00:02:31;;;;;;;73.00;23.40;;;;;;;0.82;100.00;99763.38;5079136;28;20071;-79
2023/03/08 00:04:57;;;;;;;66.78;22.33;;;;;;;0.84;100.00;99770.44;5092508;28;20424;-79
2023/03/08 00:07:22;;;;;;;71.97;23.80;;;;;;;0.80;100.00;99768.00;5092866;28;20040;-79
2023/03/08 00:09:48;;;;;;;64.35;23.55;;;;;;;0.80;100.00;99757.22;5069594;28;20036;-79
2023/03/08 00:12:14;;;;;;;74.55;24.85;;;;;;;0.85;100.00;99758.72;5072651;28;20074;-79
2023/03/08 00:14:39;;;;;;;78.78;25.75;;;;;;;0.89;100.00;99764.78;5092783;28;20554;-79
2023/03/08 00:17:05;;;;;;;83.88;26.67;;;;;;;0.84;100.00;99759.66;5075930;28;20086;-80
2023/03/08 00:19:31;;;;;;;73.25;25.83;;;;;;;0.75;100.00;99757.47;5092636;28;20124;-79
2023/03/08 00:21:56;;;;;;;62.20;22.88;;;;;;;0.73;100.00;99762.09;5092623;28;20392;-79
2023/03/08 00:24:22;;;;;;;68.30;25.77;;;;;;;0.68;100.00;99761.47;5078433;28;20364;-80
2023/03/08 00:26:48;;;;;;;73.78;24.40;;;;;;;0.72;100.00;99760.34;5086445;28;20067;-79
2023/03/08 00:29:13;;;;;;;73.82;25.38;;;;;;;0.70;100.00;99762.25;5058255;28;20387;-79
2023/03/08 00:31:39;;;;;;;81.80;26.88;;;;;;;0.76;100.00;99771.81;5081174;28;20580;-79
2023/03/08 00:34:04;;;;;;;84.60;28.48;;;;;;;0.80;100.00;99766.16;5092119;28;20048;-80
2023/03/08 00:36:30;;;;;;;74.43;26.95;;;;;;;0.88;100.00;99757.66;5092735;28;20042;-79
2023/03/08 00:38:56;;;;;;;76.30;28.15;;;;;;;0.89;100.00;99764.78;5075193;28;20453;-79
2023/03/08 00:41:22;;;;;;;75.72;26.38;;;;;;;0.89;100.00;99765.66;5091532;28;20032;-79
2023/03/08 00:43:48;;;;;;;93.60;26.92;;;;;;;0.90;100.00;99767.41;5073134;28;20066;-79
2023/03/08 00:46:14;;;;;;;73.20;25.42;;;;;;;0.93;100.00;99760.09;5093500;28;20028;-79
2023/03/08 00:48:42;;;;;;;86.97;29.98;;;;;;;0.94;100.00;99767.22;5108016;28;20040;-79
2023/03/08 00:51:11;;;;;;;88.25;28.92;;;;;;;0.97;100.00;99770.59;5091873;28;20399;-80
2023/03/08 00:53:36;;;;;;;81.00;28.40;;;;;;;0.94;100.00;99756.44;5093203;28;20056;-79
2023/03/08 00:56:02;;;;;;;77.25;28.80;;;;;;;0.97;100.00;99750.84;5075319;28;20076;-79
2023/03/08 00:58:29;;;;;;;90.47;28.70;;;;;;;0.83;100.00;99760.59;5091342;28;20028;-79
2023/03/08 01:00:55;;;;;;;89.93;28.50;;;;;;;0.84;100.00;99756.97;5086648;28;20390;-80
2023/03/08 01:03:21;;;;;;;76.60;27.48;;;;;;;0.78;100.00;99740.28;5098437;28;20060;-80
2023/03/08 01:05:48;;;;;;;82.45;29.92;;;;;;;0.82;100.00;99747.22;5074631;28;20075;-79
2023/03/08 01:08:16;;;;;;;79.15;27.00;;;;;;;0.82;100.00;99747.22;5075232;28;20074;-79
2023/03/08 01:10:56;;;;;;;76.95;28.58;;;;;;;0.88;100.00;99749.56;5033598;28;20087;-79
2023/03/08 01:13:23;;;;;;;78.68;27.27;;;;;;;0.90;100.00;99742.25;5056539;28;20032;-79
2023/03/08 01:15:49;;;;;;;86.90;29.90;;;;;;;0.86;100.00;99729.94;5054936;28;20033;-79
2023/03/08 01:18:14;;;;;;;93.40;30.58;;;;;;;0.89;100.00;99721.66;5055193;28;20032;-78
2023/03/08 01:20:40;;;;;;;94.50;32.13;;;;;;;0.86;100.00;99733.47;5070783;28;20162;-79
2023/03/08 01:23:06;;;;;;;89.38;31.17;;;;;;;0.83;100.00;99722.88;5057738;28;20056;-80
2023/03/08 01:25:31;;;;;;;94.68;30.90;;;;;;;0.89;100.00;99722.53;5058071;28;20024;-79
2023/03/08 01:27:57;;;;;;;100.35;30.85;;;;;;;0.94;100.00;99711.50;5092567;28;20032;-79
2023/03/08 01:30:22;;;;;;;98.13;30.38;;;;;;;0.94;100.00;99710.63;5065761;28;20089;-79
2023/03/08 01:32:48;;;;;;;88.90;28.58;;;;;;;0.91;100.00;99707.13;5021903;28;20410;-79
2023/03/08 01:35:13;;;;;;;98.35;29.98;;;;;;;0.94;100.00;99700.72;5093945;28;20161;-79
2023/03/08 01:37:39;;;;;;;92.70;30.08;;;;;;;0.96;100.00;99700.63;5078432;28;20032;-80
2023/03/08 01:40:05;;;;;;;104.63;31.83;;;;;;;0.99;100.00;99689.69;5096009;28;20020;-79
2023/03/08 01:42:31;;;;;;;108.35;31.80;;;;;;;0.85;100.00;99687.75;5095514;28;20035;-80
2023/03/08 01:45:02;;;;;;;112.63;30.00;;;;;;;0.95;100.00;99693.50;5096534;28;20321;-79
2023/03/08 01:47:31;;;;;;;93.28;29.90;;;;;;;0.93;100.00;99695.41;5095867;28;20387;-79
2023/03/08 01:50:04;;;;;;;108.43;33.70;;;;;;;0.88;100.00;99669.59;5078240;28;20086;-79
2023/03/08 01:52:47;;;;;;;112.22;32.50;;;;;;;0.95;100.00;99688.09;5096665;28;20394;-79
2023/03/08 01:55:14;;;;;;;;;;;;;;;0.93;100.00;99673.84;5073527;28;20029;-79
2023/03/08 01:57:44;;;;;;;112.47;33.60;;;;;;;0.95;100.00;99664.72;5093871;28;19908;-79
2023/03/08 02:00:17;;;;;;;110.63;33.20;;;;;;;0.91;100.00;99665.84;5078361;28;20046;-80
2023/03/08 02:02:48;;;;;;;111.45;35.03;;;;;;;0.99;100.00;99660.88;5078461;28;20024;-80
2023/03/08 02:05:15;;;;;;;106.95;33.05;;;;;;;0.93;100.00;99660.38;5077577;28;20396;-79
2023/03/08 02:07:41;;;;;;;107.00;33.20;;;;;;;1.00;100.00;99661.75;5060834;28;20506;-79
2023/03/08 02:10:08;;;;;;;106.05;33.17;;;;;;;0.96;100.00;99660.22;5078491;28;20032;-79
2023/03/08 02:12:35;;;;;;;113.82;34.28;;;;;;;0.87;100.00;99650.81;5095462;28;20483;-79
2023/03/08 02:15:03;;;;;;;129.68;35.20;;;;;;;0.98;100.00;99667.22;5009100;28;20127;-80
2023/03/08 02:17:29;;;;;;;111.25;33.63;;;;;;;0.98;100.00;99655.59;5075990;28;20430;-80
2023/03/08 02:20:05;;;;;;;118.95;34.63;;;;;;;0.98;100.00;99656.44;5096008;28;20032;-80
2023/03/08 02:22:31;;;;;;;122.78;35.97;;;;;;;1.01;100.00;99639.25;5095725;28;20052;-80
2023/03/08 02:24:56;;;;;;;107.35;34.33;;;;;;;0.98;100.00;99648.34;5060774;28;20074;-80
2023/03/08 02:27:26;;;;;;;116.53;34.72;;;;;;;1.01;100.00;99639.25;5095549;28;20040;-79
2023/03/08 02:29:51;;;;;;;122.75;35.30;;;;;;;0.98;100.00;99632.19;5060794;28;20040;-79
2023/03/08 02:32:17;;;;;;;129.32;37.03;;;;;;;1.02;100.00;99632.91;5095617;28;20059;-80
2023/03/08 02:34:43;;;;;;;106.93;32.58;;;;;;;1.01;100.00;99628.47;5095531;28;20036;-79
2023/03/08 02:37:08;;;;;;;116.32;34.25;;;;;;;0.95;100.00;99634.22;5076559;28;20032;-80
2023/03/08 02:39:34;;;;;;;121.32;34.10;;;;;;;0.91;100.00;99633.53;5093843;28;20032;-79
2023/03/08 02:41:59;;;;;;;111.78;34.25;;;;;;;1.00;100.00;99637.50;5056228;28;20036;-79
2023/03/08 02:44:25;;;;;;;119.20;34.58;;;;;;;0.93;100.00;99622.66;5059777;28;20069;-78
2023/03/08 02:46:51;;;;;;;117.95;34.25;;;;;;;0.91;100.00;99617.34;5050804;28;20032;-79
2023/03/08 02:49:17;;;;;;;107.97;33.50;;;;;;;0.89;100.00;99606.66;5041979;28;20094;-79
2023/03/08 02:51:42;;;;;;;135.45;37.30;;;;;;;0.99;100.00;99615.06;5094823;28;20487;-79
2023/03/08 02:54:08;;;;;;;128.30;33.58;;;;;;;0.90;100.00;99613.81;5059867;28;20085;-79
2023/03/08 02:56:33;;;;;;;124.72;33.00;;;;;;;0.98;100.00;99612.47;5057340;28;20064;-79
2023/03/08 02:58:59;;;;;;;118.55;32.45;;;;;;;0.97;100.00;99610.72;5071022;28;20035;-78
2023/03/08 03:01:27;;;;;;;113.57;34.00;;;;;;;0.98;100.00;99612.47;5052070;28;20064;-79
2023/03/08 03:03:54;;;;;;;124.15;34.30;;;;;;;0.90;100.00;99599.44;5058356;28;20494;-79
2023/03/08 03:06:20;;;;;;;121.47;32.70;;;;;;;0.90;100.00;99594.94;5094808;28;20047;-79
2023/03/08 03:08:46;;;;;;;117.55;31.40;;;;;;;0.96;100.00;99600.91;5093834;28;20123;-78
2023/03/08 03:11:14;;;;;;;124.70;33.70;;;;;;;1.00;100.00;99599.75;5091114;28;20379;-79
2023/03/08 03:13:40;;;;;;;110.78;33.55;;;;;;;0.94;100.00;99605.53;5093610;28;20036;-79
2023/03/08 03:16:11;;;;;;;113.15;32.60;;;;;;;0.87;100.00;99576.25;5094187;28;20032;-79
2023/03/08 03:18:36;;;;;;;130.27;34.20;;;;;;;0.88;100.00;99579.81;5094150;28;20039;-78
2023/03/08 03:21:08;;;;;;;134.48;34.17;;;;;;;0.96;100.00;99576.66;5076142;28;20036;-78
2023/03/08 03:23:35;;;;;;;109.70;31.88;;;;;;;0.87;100.00;99562.78;5073377;28;20380;-79
2023/03/08 03:26:11;;;;;;;130.57;31.67;;;;;;;0.89;100.00;99574.34;5089170;28;20555;-79
2023/03/08 03:28:37;;;;;;;125.00;32.38;;;;;;;0.81;100.00;99565.84;5088848;28;20040;-79
2023/03/08 03:31:11;;;;;;;121.80;32.53;;;;;;;0.90;100.00;99569.81;5093246;28;20039;-79
2023/03/08 03:33:38;;;;;;;133.90;32.22;;;;;;;0.93;100.00;99571.47;5094280;28;20040;-79
2023/03/08 03:36:04;;;;;;;131.30;33.25;;;;;;;0.94;100.00;99565.97;5092454;28;20036;-79
2023/03/08 03:38:30;;;;;;;138.27;33.38;;;;;;;0.90;100.00;99567.09;5093261;28;20394;-80
2023/03/08 03:41:03;;;;;;;126.07;33.80;;;;;;;0.88;100.00;99559.13;5077995;28;20111;-79
2023/03/08 03:43:28;;;;;;;125.38;34.67;;;;;;;0.93;100.00;99544.53;5061868;28;20403;-79
2023/03/08 03:45:59;;;;;;;118.85;32.83;;;;;;;0.90;100.00;99542.84;5093019;28;20111;-79
2023/03/08 03:48:25;;;;;;;124.47;32.58;;;;;;;0.93;100.00;99525.66;5083238;28;20032;-79
2023/03/08 03:50:59;;;;;;;123.05;31.98;;;;;;;0.92;100.00;99530.19;5076164;28;20110;-79
2023/03/08 03:53:27;;;;;;;117.85;31.10;;;;;;;0.96;100.00;99539.81;5093160;28;20386;-79
2023/03/08 03:55:52;;;;;;;123.75;32.35;;;;;;;0.97;100.00;99530.78;5091597;28;20390;-79
2023/03/08 03:58:18;;;;;;;110.95;32.30;;;;;;;1.02;100.00;99534.03;5075063;28;20032;-79
2023/03/08 04:00:43;;;;;;;126.72;35.10;;;;;;;1.04;100.00;99528.56;5087117;28;20043;-79
2023/03/08 04:03:09;;;;;;;130.10;33.15;;;;;;;0.96;100.00;99530.84;5082337;28;20043;-79
2023/03/08 04:05:35;;;;;;;119.50;31.80;;;;;;;0.90;100.00;99527.59;5075866;28;20047;-79
2023/03/08 04:08:00;;;;;;;109.65;30.40;;;;;;;0.82;100.00;99527.19;5092495;28;20434;-79
2023/03/08 04:10:25;;;;;;;130.00;30.95;;;;;;;0.82;100.00;99521.78;5093076;28;20046;-79
2023/03/08 04:12:51;;;;;;;119.75;30.60;;;;;;;0.87;100.00;99516.09;5093440;28;20043;-79
2023/03/08 04:15:17;;;;;;;115.25;31.98;;;;;;;0.89;100.00;99517.75;5075844;28;20036;-79
2023/03/08 04:17:43;;;;;;;110.55;29.88;;;;;;;0.85;100.00;99509.94;5075204;28;20036;-79
2023/03/08 04:20:09;;;;;;;112.13;29.13;;;;;;;0.87;100.00;99505.31;5058338;28;20511;-79
2023/03/08 04:22:34;;;;;;;115.53;29.20;;;;;;;0.83;100.00;99495.72;5075859;28;20036;-79
2023/03/08 04:25:00;;;;;;;120.53;30.55;;;;;;;0.89;100.00;99498.91;5072594;28;20033;-79
2023/03/08 04:27:25;;;;;;;110.35;28.73;;;;;;;0.84;100.00;99484.84;5072968;28;20085;-79
2023/03/08 04:29:51;;;;;;;93.63;25.67;;;;;;;0.86;100.00;99484.75;5093799;28;20077;-79
2023/03/08 04:32:16;;;;;;;123.80;30.15;;;;;;;0.88;100.00;99480.97;5073247;28;20082;-79
2023/03/08 04:34:42;;;;;;;99.50;26.80;;;;;;;0.85;100.00;99461.44;5082226;28;20089;-79
2023/03/08 04:37:10;;;;;;;112.82;28.58;;;;;;;0.80;100.00;99464.41;5059079;28;20165;-80
2023/03/08 04:39:35;;;;;;;99.95;26.83;;;;;;;0.90;100.00;99459.34;5088475;28;20024;-79
2023/03/08 04:42:04;;;;;;;116.45;29.08;;;;;;;0.85;100.00;99456.06;5072132;28;20036;-79
2023/03/08 04:44:29;;;;;;;125.78;29.05;;;;;;;0.85;100.00;99459.66;5075601;28;20040;-79
2023/03/08 04:46:55;;;;;;;137.13;31.67;;;;;;;0.85;100.00;99448.88;5093354;28;20445;-80
2023/03/08 04:49:20;;;;;;;126.82;31.95;;;;;;;0.83;100.00;99444.53;5072817;28;20386;-78
2023/03/08 04:51:46;;;;;;;122.80;31.10;;;;;;;0.81;100.00;99441.06;5092656;28;20036;-80
2023/03/08 04:54:11;;;;;;;125.07;32.08;;;;;;;0.85;100.00;99450.69;5092268;28;20085;-79
2023/03/08 04:56:37;;;;;;;125.43;33.67;;;;;;;0.81;100.00;99443.75;5088320;28;20036;-79
2023/03/08 04:59:03;;;;;;;126.97;30.75;;;;;;;0.82;100.00;99434.69;5081391;28;20430;-80
2023/03/08 05:01:28;;;;;;;142.63;33.60;;;;;;;0.85;100.00;99437.19;5091863;28;20429;-79
2023/03/08 05:03:54;;;;;;;138.48;34.17;;;;;;;0.88;100.00;99440.56;5092610;28;20040;-79
2023/03/08 05:06:22;;;;;;;138.70;34.47;;;;;;;0.89;100.00;99426.16;5092596;28;20067;-79
2023/03/08 05:08:48;;;;;;;127.18;35.03;;;;;;;0.86;100.00;99425.47;5074572;28;20032;-79
2023/03/08 05:11:19;;;;;;;129.13;31.80;;;;;;;0.85;100.00;99421.03;5079745;28;20094;-78
2023/03/08 05:13:45;;;;;;;158.23;36.85;;;;;;;0.90;100.00;99417.13;5098144;28;20024;-81
2023/03/08 05:16:11;;;;;;;153.30;36.20;;;;;;;0.97;100.00;99411.31;5093388;28;20028;-80
2023/03/08 05:18:36;;;;;;;155.57;39.17;;;;;;;0.80;100.00;99399.78;5043015;28;20030;-79
2023/03/08 05:21:09;;;;;;;154.65;41.78;;;;;;;0.90;100.00;99398.25;5061998;28;20028;-80
2023/03/08 05:23:34;;;;;;;140.63;37.70;;;;;;;0.78;100.00;99390.91;5075571;28;20040;-79
2023/03/08 05:26:03;;;;;;;145.57;40.03;;;;;;;0.86;100.00;99388.63;5060554;28;20028;-80
2023/03/08 05:28:31;;;;;;;159.32;40.08;;;;;;;0.82;100.00;99392.47;5096401;28;20036;-79
2023/03/08 05:31:06;;;;;;;163.98;41.17;;;;;;;0.81;100.00;99382.66;5078144;28;20031;-78
2023/03/08 05:33:33;;;;;;;172.27;41.88;;;;;;;0.78;100.00;99369.38;5078457;28;20032;-78
2023/03/08 05:35:58;;;;;;;153.70;40.45;;;;;;;0.70;100.00;99369.00;5077921;28;20028;-77
2023/03/08 05:38:27;;;;;;;136.13;36.05;;;;;;;0.91;100.00;99364.94;5045403;28;20089;-77
2023/03/08 05:40:53;;;;;;;167.88;41.17;;;;;;;0.79;100.00;99367.53;5096289;28;20391;-78
2023/03/08 05:43:21;;;;;;;168.10;42.75;;;;;;;0.77;100.00;99358.69;5072898;28;20043;-77
2023/03/08 05:46:09;;;;;;;139.52;37.60;;;;;;;0.76;100.00;99371.31;5097629;28;20395;-77
2023/03/08 05:48:35;;;;;;;139.27;37.67;;;;;;;0.71;100.00;99359.97;5069186;28;20028;-76
2023/03/08 05:51:13;;;;;;;147.25;38.08;;;;;;;0.64;100.00;99337.03;5094126;28;20044;-77
2023/03/08 05:53:39;;;;;;;128.88;33.72;;;;;;;0.60;100.00;99335.53;5070301;28;20040;-77
2023/03/08 05:56:11;;;;;;;116.50;31.38;;;;;;;0.66;100.00;99348.63;5074192;28;20387;-77
2023/03/08 05:58:36;;;;;;;126.57;31.55;;;;;;;0.61;100.00;99324.66;5055087;28;20038;-76
2023/03/08 06:01:16;;;;;;;124.93;29.90;;;;;;;0.62;100.00;99315.59;5077586;28;20440;-77
2023/03/08 06:03:46;;;;;;;118.07;29.75;;;;;;;0.52;100.00;99319.84;5070141;28;20491;-77
2023/03/08 06:06:12;;;;;;;98.88;23.77;;;;;;;0.51;100.00;99302.81;5096471;28;20028;-78
2023/03/08 06:08:38;;;;;;;78.88;20.52;;;;;;;0.54;100.00;99299.06;5076926;28;20617;-77
2023/03/08 06:11:04;;;;;;;62.97;19.58;;;;;;;0.50;100.00;99302.91;5076868;28;20067;-77
2023/03/08 06:13:29;;;;;;;86.85;20.30;;;;;;;0.48;100.00;99297.63;5096491;28;20109;-77
2023/03/08 06:15:58;;;;;;;70.57;20.15;;;;;;;0.43;100.00;99291.66;5076755;28;20402;-77
2023/03/08 06:18:24;;;;;;;80.85;20.60;;;;;;;0.45;100.00;99300.50;5077364;28;20141;-77
2023/03/08 06:20:56;;;;;;;84.65;22.65;;;;;;;0.46;100.00;99299.56;5055546;28;20040;-78
2023/03/08 06:23:22;;;;;;;92.63;25.90;;;;;;;0.46;100.00;99293.28;5077146;28;20040;-78
2023/03/08 06:25:47;;;;;;;67.88;19.40;;;;;;;0.36;100.00;99290.31;5060532;28;20042;-78
2023/03/08 06:28:13;;;;;;;70.75;20.70;;;;;;;0.40;100.00;99283.78;5076076;28;20110;-78
2023/03/08 06:30:39;;;;;;;89.47;21.27;;;;;;;0.42;100.00;99289.06;5070404;28;20060;-78
2023/03/08 06:33:04;;;;;;;94.57;23.63;;;;;;;0.35;100.00;99284.06;5095596;28;20089;-78
2023/03/08 06:35:29;;;;;;;75.53;23.30;;;;;;;0.37;100.00;99286.66;5076948;28;20086;-77
2023/03/08 06:37:55;;;;;;;85.32;21.17;;;;;;;0.37;100.00;99286.66;5065164;28;20081;-78
2023/03/08 06:40:20;;;;;;;82.25;22.30;;;;;;;0.36;100.00;99287.63;5058155;28;20398;-77
2023/03/08 06:42:46;;;;;;;100.45;23.85;;;;;;;0.33;100.00;99283.31;5044013;28;20101;-77
2023/03/08 06:45:12;;;;;;;83.40;19.83;;;;;;;0.29;100.00;99272.81;5073554;28;20486;-78
2023/03/08 06:47:37;;;;;;;76.30;21.25;;;;;;;0.30;100.00;99266.50;5044548;28;20028;-77
2023/03/08 06:50:03;;;;;;;86.68;20.77;;;;;;;0.31;100.00;99274.47;5042106;28;20105;-78
2023/03/08 06:52:33;;;;;;;80.18;20.85;;;;;;;0.24;100.00;99270.41;5058195;28;20126;-79
2023/03/08 06:55:00;;;;;;;65.97;19.15;;;;;;;0.26;100.00;99259.56;5053270;28;20115;-78
2023/03/08 06:57:26;;;;;;;76.97;21.25;;;;;;;0.28;100.00;99266.59;5071456;28;20056;-78
2023/03/08 06:59:51;;;;;;;81.28;20.48;;;;;;;0.31;100.00;99273.59;5072984;28;20078;-78
2023/03/08 07:02:16;;;;;;;88.93;23.02;;;;;;;0.33;100.00;99279.75;5068748;28;20501;-78
2023/03/08 07:04:44;;;;;;;96.82;23.17;;;;;;;0.32;100.00;99270.78;5054651;28;20088;-77
2023/03/08 07:07:10;;;;;;;89.28;23.17;;;;;;;0.27;100.00;99266.69;5089487;28;20060;-78
2023/03/08 07:09:35;;;;;;;92.15;24.33;;;;;;;0.24;100.00;99265.03;5058099;28;20121;-78
2023/03/08 07:12:03;;;;;;;97.25;23.75;;;;;;;0.29;100.00;99270.97;5068966;28;20054;-79
2023/03/08 07:14:29;;;;;;;107.35;24.90;;;;;;;0.28;100.00;99269.28;5091495;28;20040;-79
2023/03/08 07:16:56;;;;;;;90.28;21.83;;;;;;;0.26;100.00;99271.16;5068149;28;20043;-77
2023/03/08 07:19:22;;;;;;;86.88;23.08;;;;;;;0.28;100.00;99274.66;5021691;28;20024;-77
2023/03/08 07:21:47;;;;;;;92.43;20.95;;;;;;;0.18;100.00;99265.41;5090717;28;20055;-77
2023/03/08 07:24:13;;;;;;;84.68;21.90;;;;;;;0.20;100.00;99255.44;5070919;28;20483;-77
2023/03/08 07:26:38;;;;;;;66.43;18.02;;;;;;;0.16;100.00;99251.19;5057814;28;20131;-77
2023/03/08 07:29:04;;;;;;;78.30;18.65;;;;;;;0.13;100.00;99248.69;5062044;28;20410;-78
2023/03/08 07:31:31;;;;;;;69.25;18.77;;;;;;;0.16;100.00;99256.56;5039062;28;20406;-76
2023/03/08 07:33:57;;;;;;;63.30;17.65;;;;;;;0.20;100.00;99249.16;5077451;28;20036;-77
2023/03/08 07:36:22;;;;;;;66.43;16.58;;;;;;;0.20;100.00;99249.16;5074631;28;20050;-78
2023/03/08 07:38:48;;;;;;;70.30;18.95;;;;;;;0.17;100.00;99248.41;5092992;28;20090;-77
2023/03/08 07:41:13;;;;;;;75.38;18.92;;;;;;;0.12;100.00;99234.38;5075704;28;20036;-78
2023/03/08 07:43:39;;;;;;;79.55;20.15;;;;;;;0.24;100.00;99242.63;5059968;28;20119;-78
2023/03/08 07:46:04;;;;;;;107.90;21.88;;;;;;;0.19;100.00;99213.31;5076377;28;20487;-79
2023/03/08 07:48:31;;;;;;;85.68;22.35;;;;;;;0.20;100.00;99231.22;5093883;28;20078;-79
2023/03/08 07:51:08;;;;;;;86.55;21.80;;;;;;;0.15;100.00;99222.56;5076204;28;20040;-78
2023/03/08 07:53:35;;;;;;;74.25;21.25;;;;;;;0.17;100.00;99218.81;5094225;28;20399;-79
2023/03/08 07:56:05;;;;;;;105.75;23.50;;;;;;;0.17;100.00;99210.72;5076480;28;20059;-79
2023/03/08 07:58:30;;;;;;;95.85;22.45;;;;;;;0.15;100.00;99218.03;5091660;28;20047;-78
2023/03/08 08:00:56;;;;;;;112.10;25.80;;;;;;;0.17;100.00;99220.63;5108365;28;20036;-80
2023/03/08 08:03:21;;;;;;;99.43;23.23;;;;;;;0.14;100.00;99212.75;5059574;28;20398;-79
2023/03/08 08:05:47;;;;;;;107.97;25.83;;;;;;;0.12;100.00;99199.38;5096923;28;20052;-79
2023/03/08 08:08:12;;;;;;;93.40;22.38;;;;;;;0.12;100.00;99202.09;5059350;28;20081;-79
2023/03/08 08:10:39;;;;;;;89.40;23.13;;;;;;;0.08;100.00;99202.38;5076401;28;20067;-79
2023/03/08 08:13:05;;;;;;;91.13;22.00;;;;;;;0.05;100.00;99195.38;5094574;28;20040;-79
2023/03/08 08:15:31;;;;;;;77.90;21.05;;;;;;;0.10;100.00;99190.56;5071637;28;20028;-79
2023/03/08 08:17:57;;;;;;;91.95;23.98;;;;;;;0.13;100.00;99179.59;5054026;28;20042;-79
2023/03/08 08:20:24;;;;;;;84.63;20.58;;;;;;;0.12;100.00;99187.78;5076350;28;20111;-80
2023/03/08 08:22:52;;;;;;;94.78;21.60;;;;;;;0.14;100.00;99183.16;5055481;28;20160;-79
2023/03/08 08:25:18;;;;;;;86.05;23.70;;;;;;;0.06;100.00;99186.31;5072747;28;20048;-78
2023/03/08 08:27:44;;;;;;;94.82;22.42;;;;;;;0.03;100.00;99186.50;5072716;28;20093;-80
2023/03/08 08:30:12;;;;;;;95.50;25.00;;;;;;;0.11;100.00;99170.75;5056159;28;20044;-80
2023/03/08 08:32:37;;;;;;;93.68;23.95;;;;;;;0.02;100.00;99167.75;5073705;28;20044;-80
2023/03/08 08:35:03;;;;;;;110.68;26.17;;;;;;;0.05;100.00;99163.09;5055986;28;20472;-80
2023/03/08 08:37:32;;;;;;;83.15;22.90;;;;;;;0.03;100.00;99156.91;5090635;28;20040;-80
2023/03/08 08:39:58;;;;;;;85.95;22.58;;;;;;;-0.02;100.00;99154.53;5093848;28;20387;-80
2023/03/08 08:42:24;;;;;;;102.38;24.48;;;;;;;-0.04;100.00;99151.06;5075840;28;20394;-80
2023/03/08 08:44:52;;;;;;;91.93;23.50;;;;;;;-0.02;100.00;99135.72;5058789;28;20471;-79
2023/03/08 08:47:18;;;;;;;87.68;23.27;;;;;;;-0.02;100.00;99149.16;5041903;28;20057;-80
2023/03/08 08:49:43;;;;;;;96.90;23.80;;;;;;;0.04;100.00;99147.88;5075609;28;20114;-80
2023/03/08 08:52:09;;;;;;;65.90;19.58;;;;;;;0.07;100.00;99142.31;5092526;28;20119;-79
2023/03/08 08:54:38;;;;;;;73.13;18.40;;;;;;;0.05;100.00;99149.63;5059203;28;20039;-80
2023/03/08 08:57:04;;;;;;;76.43;19.02;;;;;;;-0.02;100.00;99134.81;5081565;28;20406;-80
2023/03/08 08:59:30;;;;;;;66.22;18.50;;;;;;;0.00;100.00;99122.16;5114251;28;20036;-80
2023/03/08 09:01:55;;;;;;;62.17;17.15;;;;;;;0.06;100.00;99126.28;5095716;28;20042;-80
2023/03/08 09:04:20;;;;;;;65.05;17.58;;;;;;;0.12;100.00;99129.44;5097878;28;20051;-81
2023/03/08 09:06:46;;;;;;;68.68;18.38;;;;;;;0.17;100.00;99134.53;5102226;28;20387;-80
2023/03/08 09:09:12;;;;;;;63.97;19.42;;;;;;;0.16;100.00;99132.78;5075911;28;20032;-80
2023/03/08 09:11:37;;;;;;;77.43;22.45;;;;;;;0.09;100.00;99135.00;5092823;28;20086;-80
2023/03/08 09:14:02;;;;;;;86.72;24.60;;;;;;;0.04;100.00;99139.81;5074868;28;20036;-80
2023/03/08 09:16:32;;;;;;;78.32;22.23;;;;;;;0.24;100.00;99146.59;5075441;28;20044;-80
2023/03/08 09:19:00;;;;;;;83.50;22.88;;;;;;;0.23;100.00;99142.22;5093451;28;20032;-80
2023/03/08 09:21:27;;;;;;;80.32;22.75;;;;;;;0.22;100.00;99145.84;5058814;28;20486;-81
2023/03/08 09:23:53;;;;;;;95.97;24.48;;;;;;;0.27;100.00;99156.31;5058441;28;20028;-79
2023/03/08 09:26:21;;;;;;;95.82;25.77;;;;;;;0.29;100.00;99154.41;5075059;28;20067;-80
2023/03/08 09:28:47;;;;;;;94.68;26.88;;;;;;;0.11;100.00;99148.38;5074658;28;20036;-81
2023/03/08 09:31:17;;;;;;;88.07;27.05;;;;;;;0.18;100.00;99129.03;5074829;28;20475;-80
2023/03/08 09:33:50;;;;;;;84.90;28.08;;;;;;;0.10;100.00;99119.72;5093746;28;20391;-81
2023/03/08 09:36:16;;;;;;;100.70;28.70;;;;;;;0.15;100.00;99102.34;5074484;28;20372;-81
2023/03/08 09:38:42;;;;;;;84.28;26.73;;;;;;;0.10;100.00;99092.81;5058751;28;20024;-81
2023/03/08 09:41:27;;;;;;;101.50;27.80;;;;;;;0.16;100.00;99096.00;5075206;28;20028;-80
2023/03/08 09:44:20;;;;;;;94.95;28.85;;;;;;;0.18;100.00;99077.03;5093631;28;20039;-81
2023/03/08 09:46:48;;;;;;;;;;;;;;;0.27;100.00;99078.28;5093174;28;20536;-81
2023/03/08 09:49:20;;;;;;;96.22;28.63;;;;;;;0.18;100.00;99056.38;5053610;28;19923;-81
2023/03/08 09:51:50;;;;;;;118.05;32.70;;;;;;;0.32;100.00;99070.75;5057674;28;20047;-81
2023/03/08 09:54:22;;;;;;;117.63;32.45;;;;;;;0.31;100.00;99074.41;5093618;28;20039;-80
2023/03/08 09:56:50;;;;;;;101.78;30.27;;;;;;;0.36;100.00;99066.88;5096879;28;20030;-80
2023/03/08 09:59:51;;;;;;;90.68;27.67;;;;;;;0.35;100.00;99057.97;5097128;28;20024;-81
2023/03/08 10:02:24;;;;;;;91.95;31.50;;;;;;;0.40;100.00;99056.81;5089963;28;20483;-81
2023/03/08 10:05:12;;;;;;;96.30;29.73;;;;;;;0.50;100.00;99052.53;5042064;28;20462;-81
2023/03/08 10:08:00;;;;;;;91.70;26.02;;;;;;;0.46;100.00;99049.19;5089217;28;20097;-80
2023/03/08 10:11:03;;;;;;;94.80;30.05;;;;;;;0.45;100.00;99043.91;5079027;28;20035;-80
2023/03/08 10:13:30;;;;;;;92.07;28.38;;;;;;;0.52;100.00;99055.97;5096409;28;20028;-81
2023/03/08 10:16:09;;;;;;;71.53;23.90;;;;;;;0.51;100.00;99051.56;5078940;28;20081;-80
2023/03/08 10:18:44;;;;;;;72.03;23.23;;;;;;;0.47;100.00;99042.81;5078134;28;20043;-81
2023/03/08 10:21:15;;;;;;;106.05;29.48;;;;;;;0.55;100.00;99042.31;5078615;28;20043;-81
2023/03/08 10:23:44;;;;;;;104.05;30.65;;;;;;;0.66;100.00;99030.81;5078587;28;20028;-81
2023/03/08 10:26:12;;;;;;;97.47;30.77;;;;;;;0.63;100.00;99036.41;5095315;28;20032;-81
2023/03/08 10:28:38;;;;;;;114.07;34.35;;;;;;;0.66;100.00;99041.59;5058069;28;20025;-81
2023/03/08 10:31:24;;;;;;;113.03;34.03;;;;;;;0.69;100.00;99060.25;5044352;28;20028;-80
2023/03/08 10:33:57;;;;;;;106.93;33.38;;;;;;;0.64;100.00;99065.03;5096359;28;20433;-80
2023/03/08 10:36:24;;;;;;;94.70;31.52;;;;;;;0.51;100.00;99043.50;5061323;28;20039;-80
2023/03/08 10:39:19;;;;;;;112.50;33.15;;;;;;;0.61;100.00;99036.50;5096235;28;20074;-80
2023/03/08 10:41:49;;;;;;;93.22;33.50;;;;;;;0.62;100.00;99031.97;5071731;28;20396;-80
2023/03/08 10:44:35;;;;;;;106.55;35.72;;;;;;;0.59;100.00;99021.41;5061334;28;20483;-80
2023/03/08 10:47:15;;;;;;;110.50;36.42;;;;;;;0.75;100.00;99034.72;5078244;28;20024;-80
2023/03/08 10:49:42;;;;;;;105.90;37.03;;;;;;;0.71;100.00;99034.06;5095715;28;20554;-80
2023/03/08 10:52:26;;;;;;;93.68;29.02;;;;;;;0.70;100.00;99032.31;5077658;28;20092;-79
2023/03/08 10:55:12;;;;;;;56.40;20.10;;;;;;;0.61;100.00;99023.06;5094429;28;20525;-78
2023/03/08 10:57:41;;;;;;;59.42;25.27;;;;;;;0.60;100.00;99023.16;5094156;28;20039;-79
2023/03/08 11:00:30;;;;;;;73.95;22.42;;;;;;;0.76;100.00;99025.69;5070253;28;20364;-79
2023/03/08 11:03:23;;;;;;;68.03;24.73;;;;;;;0.80;100.00;99006.47;5060857;28;20047;-79
2023/03/08 11:05:54;;;;;;;55.78;21.63;;;;;;;0.73;100.00;99003.34;5084571;28;20131;-79
2023/03/08 11:08:23;;;;;;;56.42;23.05;;;;;;;0.72;100.00;99003.44;5095201;28;20400;-79
2023/03/08 11:10:59;;;;;;;68.75;24.55;;;;;;;0.66;100.00;99011.97;5076993;28;20035;-78
2023/03/08 11:13:30;;;;;;;82.50;25.35;;;;;;;0.76;100.00;99020.28;5095886;28;20051;-79
2023/03/08 11:16:16;;;;;;;65.43;25.98;;;;;;;0.71;100.00;99020.59;5095863;28;20398;-79
2023/03/08 11:18:48;;;;;;;67.47;25.67;;;;;;;0.78;100.00;99026.44;5094195;28;20052;-80